Time;durP1;ratioP1;P1;durP2;ratioP2;P2;SDS_P1;SDS_P2;PMS_P1;PMS_P2;Temp;Humidity;BMP_temperature;BMP_pressure;BME280_temperature;BME280_humidity;BME280_pressure;Samples;Min_cycle;Max_cycle;Signal;HPM_P1;HPM_P2
2023/06/23 00:01:22;;;;;;;5.83;5.33;;;28.30;61.70;;;;;;5075568;28;20500;-76
2023/06/23 00:03:49;;;;;;;7.93;5.60;;;28.30;61.90;;;;;;5068334;28;20481;-76
2023/06/23 00:06:17;;;;;;;6.10;5.50;;;28.20;61.80;;;;;;5073015;28;20529;-76
2023/06/23 00:08:47;;;;;;;6.97;5.73;;;28.30;61.60;;;;;;5066633;28;20496;-75
2023/06/23 00:11:15;;;;;;;13.20;6.00;;;28.20;61.30;;;;;;5084569;28;20408;-75
2023/06/23 00:13:43;;;;;;;6.10;5.50;;;28.30;61.50;;;;;;5073525;28;20471;-76
2023/06/23 00:16:11;;;;;;;6.83;6.13;;;28.30;61.20;;;;;;5080645;28;20499;-76
2023/06/23 00:18:40;;;;;;;5.23;4.73;;;28.20;60.90;;;;;;5065814;28;20874;-76
2023/06/23 00:21:09;;;;;;;5.30;4.80;;;28.20;61.20;;;;;;5069231;28;20429;-75
2023/06/23 00:23:39;;;;;;;5.60;5.10;;;28.10;61.40;;;;;;5064467;28;20493;-75
2023/06/23 00:26:08;;;;;;;6.63;5.70;;;28.20;61.40;;;;;;5073143;28;20978;-75
2023/06/23 00:28:36;;;;;;;8.33;5.87;;;28.20;60.90;;;;;;5073100;28;20424;-76
2023/06/23 00:31:05;;;;;;;7.20;6.13;;;28.20;61.10;;;;;;5073235;28;20421;-75
2023/06/23 00:33:33;;;;;;;6.93;5.30;;;28.20;61.20;;;;;;5067081;28;20437;-76
2023/06/23 00:36:04;;;;;;;5.83;5.13;;;28.10;60.80;;;;;;5073219;28;20419;-76
2023/06/23 00:38:33;;;;;;;7.90;5.53;;;28.20;60.70;;;;;;5067673;28;20463;-76
2023/06/23 00:41:02;;;;;;;8.67;5.90;;;28.10;60.40;;;;;;5073008;28;20449;-75
2023/06/23 00:43:31;;;;;;;6.60;5.77;;;28.00;60.70;;;;;;5073099;28;20894;-75
2023/06/23 00:46:00;;;;;;;5.50;5.10;;;27.90;60.90;;;;;;5077945;28;20469;-75
2023/06/23 00:48:28;;;;;;;7.60;6.50;;;27.90;61.20;;;;;;5072621;28;20441;-76
2023/06/23 00:50:56;;;;;;;5.50;5.10;;;27.90;61.00;;;;;;5080236;28;20462;-75
2023/06/23 00:53:26;;;;;;;9.37;4.93;;;27.80;61.70;;;;;;5071276;28;20462;-75
2023/06/23 00:55:54;;;;;;;7.30;6.00;;;27.90;61.10;;;;;;5054206;28;20811;-75
2023/06/23 00:58:22;;;;;;;6.87;5.70;;;27.90;60.90;;;;;;5078749;28;20519;-75
2023/06/23 01:00:50;;;;;;;6.17;5.20;;;27.80;61.30;;;;;;5065124;28;20918;-75
2023/06/23 01:03:18;;;;;;;5.77;5.20;;;27.80;61.50;;;;;;5065934;28;20444;-75
2023/06/23 01:05:46;;;;;;;8.33;7.47;;;27.70;61.40;;;;;;5072665;28;20471;-76
2023/06/23 01:08:20;;;;;;;6.50;5.90;;;27.80;61.40;;;;;;5072622;28;20503;-76
2023/06/23 01:10:52;;;;;;;8.63;5.97;;;27.70;61.70;;;;;;5056886;28;20431;-76
2023/06/23 01:13:24;;;;;;;8.60;5.50;;;27.70;61.90;;;;;;5078067;28;20516;-76
2023/06/23 01:15:53;;;;;;;6.23;5.60;;;27.70;61.70;;;;;;5072656;28;20496;-76
2023/06/23 01:18:27;;;;;;;6.73;6.03;;;27.70;61.70;;;;;;5064127;28;20520;-76
2023/06/23 01:20:56;;;;;;;11.83;10.60;;;27.80;61.30;;;;;;5067039;28;20423;-76
2023/06/23 01:23:35;;;;;;;19.30;15.37;;;27.80;61.40;;;;;;5069739;28;20856;-76
2023/06/23 01:26:09;;;;;;;16.23;13.30;;;27.90;60.90;;;;;;5065544;28;20437;-76
2023/06/23 01:28:44;;;;;;;43.63;32.00;;;28.00;60.90;;;;;;5068166;28;20427;-76
2023/06/23 01:31:14;;;;;;;19.27;15.17;;;27.90;60.90;;;;;;5072136;28;20495;-76
2023/06/23 01:33:44;;;;;;;21.33;18.20;;;27.80;61.20;;;;;;5072061;28;20485;-76
2023/06/23 01:36:14;;;;;;;18.90;14.60;;;27.80;61.10;;;;;;5064429;28;20488;-76
2023/06/23 01:38:45;;;;;;;22.67;18.67;;;27.90;61.00;;;;;;5063993;28;20422;-76
2023/06/23 01:41:15;;;;;;;20.27;16.07;;;27.90;60.90;;;;;;5071035;28;20441;-76
2023/06/23 01:43:47;;;;;;;21.77;18.00;;;27.90;60.90;;;;;;5060879;28;20483;-76
2023/06/23 01:46:16;;;;;;;32.90;26.33;;;27.80;61.00;;;;;;5068238;28;20527;-76
2023/06/23 01:48:47;;;;;;;17.37;15.33;;;27.80;60.90;;;;;;5077726;28;20416;-76
2023/06/23 01:51:17;;;;;;;27.13;19.73;;;27.70;61.00;;;;;;5072234;28;20434;-76
2023/06/23 01:53:45;;;;;;;23.17;18.40;;;27.70;61.00;;;;;;5071808;28;20444;-76
2023/06/23 01:56:13;;;;;;;24.10;17.00;;;27.70;61.30;;;;;;5072101;28;20409;-76
2023/06/23 01:58:41;;;;;;;25.80;19.80;;;27.70;61.40;;;;;;5072102;28;20416;-76
2023/06/23 02:01:10;;;;;;;30.57;20.60;;;27.70;62.30;;;;;;5063638;28;20469;-76
2023/06/23 02:03:38;;;;;;;20.30;16.20;;;27.70;61.10;;;;;;5071910;28;20432;-75
2023/06/23 02:06:07;;;;;;;23.80;17.70;;;27.70;61.30;;;;;;5064961;28;20449;-75
2023/06/23 02:08:35;;;;;;;21.80;17.53;;;27.80;61.30;;;;;;5079449;28;20532;-76
2023/06/23 02:11:03;;;;;;;28.27;18.27;;;27.70;61.10;;;;;;5072211;28;20448;-76
2023/06/23 02:13:31;;;;;;;21.13;16.57;;;27.80;61.60;;;;;;5061543;28;21074;-76
2023/06/23 02:16:00;;;;;;;16.23;14.53;;;27.80;61.30;;;;;;5051602;28;20486;-77
2023/06/23 02:18:29;;;;;;;21.30;13.13;;;27.80;61.30;;;;;;5062406;28;20930;-77
2023/06/23 02:20:57;;;;;;;18.10;14.57;;;27.90;61.20;;;;;;5072124;28;20455;-76
2023/06/23 02:23:25;;;;;;;26.97;17.90;;;27.90;61.10;;;;;;5071757;28;20505;-76
2023/06/23 02:25:53;;;;;;;18.20;12.23;;;27.90;61.20;;;;;;5078519;28;20493;-77
2023/06/23 02:28:22;;;;;;;21.80;17.50;;;27.80;61.60;;;;;;5071123;28;20515;-76
2023/06/23 02:30:50;;;;;;;19.90;15.37;;;27.80;61.70;;;;;;5071397;28;20537;-77
2023/06/23 02:33:18;;;;;;;18.73;13.93;;;27.80;62.10;;;;;;5070331;28;20528;-76
2023/06/23 02:35:47;;;;;;;16.33;13.13;;;27.80;62.10;;;;;;5062026;28;20484;-76
2023/06/23 02:38:21;;;;;;;16.43;12.50;;;27.70;62.30;;;;;;5079514;28;20504;-76
2023/06/23 02:40:49;;;;;;;15.07;12.10;;;27.70;62.90;;;;;;5072723;28;20446;-76
2023/06/23 02:43:17;;;;;;;15.13;11.83;;;27.70;62.80;;;;;;5071523;28;20921;-76
2023/06/23 02:45:48;;;;;;;12.50;11.20;;;27.70;63.00;;;;;;5073236;28;20444;-76
2023/06/23 02:48:17;;;;;;;13.43;10.80;;;27.80;62.60;;;;;;5075203;28;20428;-76
2023/06/23 02:50:47;;;;;;;15.00;11.20;;;27.80;62.70;;;;;;5066918;28;20473;-76
2023/06/23 02:53:21;;;;;;;15.37;10.30;;;27.80;62.90;;;;;;5071388;28;20417;-76
2023/06/23 02:55:49;;;;;;;16.80;9.40;;;27.80;63.00;;;;;;5067357;28;20453;-77
2023/06/23 02:58:17;;;;;;;12.70;9.97;;;27.80;62.90;;;;;;5074822;28;20434;-76
2023/06/23 03:00:45;;;;;;;15.07;9.67;;;27.80;63.10;;;;;;5080442;28;20517;-76
2023/06/23 03:03:14;;;;;;;16.60;9.73;;;27.80;63.30;;;;;;5074498;28;20461;-76
2023/06/23 03:05:43;;;;;;;17.13;9.27;;;27.80;63.10;;;;;;5072464;28;20437;-76
2023/06/23 03:08:13;;;;;;;15.53;8.63;;;27.80;63.50;;;;;;5069398;28;20503;-76
2023/06/23 03:10:40;;;;;;;12.23;9.07;;;27.80;63.30;;;;;;5073310;28;20496;-77
2023/06/23 03:13:08;;;;;;;21.97;9.57;;;27.80;63.30;;;;;;5074429;28;20469;-77
2023/06/23 03:15:37;;;;;;;14.47;8.63;;;27.80;63.00;;;;;;5074573;28;20438;-76
2023/06/23 03:18:07;;;;;;;14.73;9.10;;;27.80;63.10;;;;;;5074231;28;20430;-76
2023/06/23 03:20:38;;;;;;;14.53;7.70;;;27.90;63.00;;;;;;5074517;28;20889;-76
2023/06/23 03:23:07;;;;;;;10.80;8.00;;;27.80;63.10;;;;;;5074752;28;20426;-76
2023/06/23 03:25:39;;;;;;;8.53;7.30;;;27.90;62.90;;;;;;5074324;28;20516;-76
2023/06/23 03:28:09;;;;;;;8.73;7.60;;;27.80;62.80;;;;;;5071335;28;21257;-77
2023/06/23 03:30:40;;;;;;;13.30;7.90;;;27.90;63.10;;;;;;5072296;28;20469;-76
2023/06/23 03:33:12;;;;;;;8.23;7.43;;;27.90;62.70;;;;;;5068380;28;20483;-76
2023/06/23 03:35:42;;;;;;;15.83;7.43;;;27.90;62.80;;;;;;5081439;28;20512;-76
2023/06/23 03:38:10;;;;;;;8.10;6.97;;;27.80;62.90;;;;;;5069101;28;20404;-76
2023/06/23 03:40:42;;;;;;;12.63;6.80;;;27.80;63.00;;;;;;5076140;28;20468;-77
2023/06/23 03:43:12;;;;;;;9.33;6.43;;;27.80;63.00;;;;;;5085992;28;20435;-76
2023/06/23 03:45:40;;;;;;;8.10;6.00;;;27.80;62.70;;;;;;5075470;28;20876;-76
2023/06/23 03:48:09;;;;;;;6.80;6.10;;;27.90;62.50;;;;;;5074054;28;20535;-76
2023/06/23 03:50:38;;;;;;;10.77;6.37;;;27.80;62.60;;;;;;5073732;28;20533;-76
2023/06/23 03:53:06;;;;;;;6.63;5.93;;;27.80;62.30;;;;;;5073555;28;20515;-77
2023/06/23 03:55:34;;;;;;;13.33;6.90;;;27.80;62.10;;;;;;5078408;28;20422;-76
2023/06/23 03:58:06;;;;;;;10.10;6.07;;;27.80;62.30;;;;;;5053473;28;20836;-76
2023/06/23 04:00:35;;;;;;;7.63;5.87;;;27.70;62.40;;;;;;5055006;28;20538;-77
2023/06/23 04:03:04;;;;;;;8.13;5.87;;;27.80;62.50;;;;;;5073295;28;20464;-76
2023/06/23 04:05:33;;;;;;;7.60;6.63;;;27.80;62.10;;;;;;5080957;28;20469;-76
2023/06/23 04:08:01;;;;;;;6.13;5.60;;;27.80;62.00;;;;;;5086833;28;20513;-76
2023/06/23 04:10:29;;;;;;;9.03;5.20;;;27.80;62.10;;;;;;5064134;28;20470;-76
2023/06/23 04:12:57;;;;;;;7.60;5.50;;;27.80;61.90;;;;;;5066058;28;20484;-76
2023/06/23 04:15:27;;;;;;;9.60;5.90;;;27.80;62.00;;;;;;5090252;28;20484;-76
2023/06/23 04:17:56;;;;;;;7.77;5.40;;;27.80;62.00;;;;;;5073606;28;20486;-76
2023/06/23 04:20:24;;;;;;;7.37;5.60;;;27.70;62.10;;;;;;5065632;28;20450;-76
2023/06/23 04:22:52;;;;;;;6.50;5.37;;;27.70;62.60;;;;;;5053447;28;20518;-76
2023/06/23 04:25:21;;;;;;;5.60;5.07;;;27.80;62.20;;;;;;5053385;28;20462;-76
2023/06/23 04:27:51;;;;;;;6.17;5.40;;;27.80;62.10;;;;;;5072204;28;20465;-76
2023/06/23 04:30:19;;;;;;;6.60;5.37;;;27.80;62.30;;;;;;5068973;28;20503;-76
2023/06/23 04:32:49;;;;;;;7.90;5.23;;;27.70;62.30;;;;;;5067703;28;20448;-76
2023/06/23 04:35:17;;;;;;;8.83;5.53;;;27.70;62.70;;;;;;5072952;28;20484;-76
2023/06/23 04:37:47;;;;;;;9.30;5.03;;;27.70;62.90;;;;;;5073121;28;20521;-77
2023/06/23 04:40:18;;;;;;;9.07;5.27;;;27.60;62.90;;;;;;5069268;28;20449;-75
2023/06/23 04:42:48;;;;;;;9.73;4.90;;;27.70;63.00;;;;;;5071214;28;20444;-76
2023/06/23 04:45:19;;;;;;;7.80;5.33;;;27.70;62.90;;;;;;5072769;28;20489;-76
2023/06/23 04:47:52;;;;;;;13.83;5.10;;;27.60;62.90;;;;;;5072724;28;20477;-76
2023/06/23 04:50:21;;;;;;;6.17;5.20;;;27.70;62.90;;;;;;5072877;28;20500;-76
2023/06/23 04:52:50;;;;;;;5.40;4.90;;;27.70;62.80;;;;;;5072846;28;20420;-76
2023/06/23 04:55:19;;;;;;;6.93;4.90;;;27.70;62.90;;;;;;5073045;28;20490;-76
2023/06/23 04:57:47;;;;;;;10.23;5.50;;;27.80;62.70;;;;;;5067643;28;20469;-76
2023/06/23 05:00:17;;;;;;;7.47;4.70;;;27.70;62.50;;;;;;5067427;28;20483;-76
2023/06/23 05:02:46;;;;;;;7.93;5.23;;;27.70;62.80;;;;;;5056870;28;20433;-76
2023/06/23 05:05:18;;;;;;;5.97;4.63;;;27.70;62.60;;;;;;5059799;28;20461;-75
2023/06/23 05:07:46;;;;;;;9.73;4.83;;;27.70;62.90;;;;;;5073423;28;20517;-76
2023/06/23 05:10:14;;;;;;;7.97;5.20;;;27.70;63.30;;;;;;5087563;28;20521;-75
2023/06/23 05:12:43;;;;;;;7.10;4.67;;;27.60;63.30;;;;;;5081467;28;20441;-76
2023/06/23 05:15:11;;;;;;;5.37;4.87;;;27.70;63.30;;;;;;5071002;28;20537;-76
2023/06/23 05:17:39;;;;;;;7.20;5.03;;;27.60;62.90;;;;;;5063657;28;20534;-75
2023/06/23 05:20:09;;;;;;;5.70;5.20;;;27.60;63.60;;;;;;5079998;28;20528;-75
2023/06/23 05:22:39;;;;;;;11.73;5.10;;;27.60;63.40;;;;;;5065417;28;20480;-75
2023/06/23 05:25:08;;;;;;;9.77;5.53;;;27.60;63.50;;;;;;5092902;28;20447;-76
2023/06/23 05:27:36;;;;;;;8.77;5.90;;;27.60;63.50;;;;;;5075219;28;20475;-75
2023/06/23 05:30:05;;;;;;;15.73;8.50;;;27.70;63.60;;;;;;5076886;28;20527;-75
2023/06/23 05:32:36;;;;;;;17.87;7.30;;;27.70;63.40;;;;;;5075142;28;20477;-75
2023/06/23 05:35:05;;;;;;;10.20;6.97;;;27.70;63.10;;;;;;5067822;28;20461;-75
2023/06/23 05:37:35;;;;;;;7.97;6.70;;;27.70;63.30;;;;;;5080455;28;20447;-76
2023/06/23 05:40:05;;;;;;;6.80;5.70;;;27.60;63.30;;;;;;5072199;28;20511;-76
2023/06/23 05:42:33;;;;;;;9.70;6.33;;;27.70;63.00;;;;;;5072106;28;20424;-76
2023/06/23 05:45:01;;;;;;;9.00;6.47;;;27.70;62.90;;;;;;5069717;28;20485;-76
2023/06/23 05:47:32;;;;;;;7.67;6.00;;;27.70;62.90;;;;;;5068020;28;20548;-76
2023/06/23 05:50:01;;;;;;;11.33;7.70;;;27.70;62.80;;;;;;5064420;28;20411;-76
2023/06/23 05:52:29;;;;;;;15.60;9.60;;;27.70;62.90;;;;;;5066462;28;20539;-76
2023/06/23 05:54:57;;;;;;;10.60;7.70;;;27.70;62.70;;;;;;5079843;28;20434;-77
2023/06/23 05:57:28;;;;;;;9.10;6.60;;;27.70;62.90;;;;;;5061282;28;20507;-76
2023/06/23 06:00:03;;;;;;;9.10;6.90;;;27.70;62.90;;;;;;5069549;28;20460;-76
2023/06/23 06:02:31;;;;;;;8.37;6.83;;;27.70;62.60;;;;;;5068313;28;20408;-76
2023/06/23 06:05:00;;;;;;;8.97;6.33;;;27.70;62.60;;;;;;5067532;28;20455;-77
2023/06/23 06:07:27;;;;;;;8.93;6.90;;;27.70;62.30;;;;;;5085294;28;20445;-76
2023/06/23 06:09:55;;;;;;;6.63;6.03;;;27.80;62.20;;;;;;5061486;28;20407;-76
2023/06/23 06:12:23;;;;;;;10.30;6.03;;;27.70;62.40;;;;;;5072975;28;20457;-76
2023/06/23 06:14:53;;;;;;;12.90;8.90;;;27.80;62.60;;;;;;5067681;28;20518;-76
2023/06/23 06:17:21;;;;;;;9.00;7.57;;;27.70;62.10;;;;;;5073287;28;20435;-75
2023/06/23 06:19:49;;;;;;;8.43;6.30;;;27.80;62.00;;;;;;5073091;28;20446;-76
2023/06/23 06:22:16;;;;;;;7.07;6.40;;;27.70;62.20;;;;;;5058713;28;20533;-77
2023/06/23 06:24:45;;;;;;;7.80;6.40;;;27.70;62.70;;;;;;5054437;28;20462;-77
2023/06/23 06:27:13;;;;;;;7.17;5.97;;;27.70;62.50;;;;;;5060268;28;20454;-76
2023/06/23 06:29:41;;;;;;;12.10;6.40;;;27.70;62.50;;;;;;5074635;28;20450;-75
2023/06/23 06:32:11;;;;;;;8.73;5.60;;;27.70;62.10;;;;;;5073850;28;20434;-76
2023/06/23 06:34:39;;;;;;;8.93;5.87;;;27.70;63.60;;;;;;5075396;28;20463;-77
2023/06/23 06:37:07;;;;;;;8.00;5.53;;;27.80;62.50;;;;;;5074474;28;20503;-78
2023/06/23 06:39:35;;;;;;;8.70;6.40;;;27.70;62.80;;;;;;5075602;28;20441;-78
2023/06/23 06:42:03;;;;;;;13.90;6.50;;;26.90;65.60;;;;;;5072720;28;20464;-79
2023/06/23 06:44:31;;;;;;;11.93;6.60;;;26.00;66.40;;;;;;5074270;28;20483;-80
2023/06/23 06:46:59;;;;;;;10.60;6.80;;;25.20;71.00;;;;;;5075522;28;20481;-77
2023/06/23 06:49:28;;;;;;;8.20;6.57;;;24.70;74.40;;;;;;5074413;28;20470;-78
2023/06/23 06:51:56;;;;;;;13.57;6.93;;;24.40;77.00;;;;;;5072287;28;20421;-79
2023/06/23 06:54:24;;;;;;;19.63;7.30;;;24.40;81.90;;;;;;5062697;28;20518;-79
2023/06/23 06:56:52;;;;;;;21.13;7.53;;;24.40;82.40;;;;;;5074435;28;20537;-78
2023/06/23 06:59:20;;;;;;;14.73;7.60;;;24.40;83.10;;;;;;5081919;28;20517;-80
2023/06/23 07:01:48;;;;;;;14.30;8.07;;;24.40;85.20;;;;;;5073116;28;20448;-80
2023/06/23 07:04:16;;;;;;;13.23;8.07;;;24.30;86.30;;;;;;5075988;28;20454;-79
2023/06/23 07:06:51;;;;;;;13.97;7.80;;;24.30;86.50;;;;;;5075493;28;20405;-79
2023/06/23 07:09:20;;;;;;;9.97;7.00;;;24.00;86.70;;;;;;5075217;28;20472;-80
2023/06/23 07:11:49;;;;;;;19.10;7.50;;;24.10;90.60;;;;;;5075845;28;20416;-80
2023/06/23 07:14:17;;;;;;;13.33;8.10;;;24.10;91.00;;;;;;5075363;28;20483;-80
2023/06/23 07:16:46;;;;;;;11.60;7.77;;;24.10;90.90;;;;;;5068161;28;20446;-80
2023/06/23 07:19:14;;;;;;;12.80;7.53;;;23.80;91.60;;;;;;5062073;28;20413;-78
2023/06/23 07:21:42;;;;;;;12.90;7.20;;;23.40;92.10;;;;;;5072335;28;20514;-79
2023/06/23 07:24:11;;;;;;;11.93;7.10;;;23.40;93.60;;;;;;5075444;28;20488;-79
2023/06/23 07:26:40;;;;;;;46.10;28.30;;;23.40;95.20;;;;;;5083291;28;20515;-80
2023/06/23 07:29:08;;;;;;;13.00;8.60;;;23.80;96.30;;;;;;5075445;28;20451;-80
2023/06/23 07:31:39;;;;;;;13.17;9.33;;;23.60;93.80;;;;;;5071165;28;20502;-80
2023/06/23 07:34:07;;;;;;;18.37;10.83;;;23.70;95.10;;;;;;5062929;28;20477;-79
2023/06/23 07:36:35;;;;;;;15.30;9.60;;;23.70;95.40;;;;;;5079476;28;20441;-79
2023/06/23 07:39:04;;;;;;;13.07;7.93;;;23.70;95.90;;;;;;5072469;28;20434;-79
2023/06/23 07:41:34;;;;;;;12.37;8.20;;;23.80;96.00;;;;;;5063046;28;20416;-78
2023/06/23 07:44:02;;;;;;;11.83;8.00;;;23.70;95.80;;;;;;5060995;28;20568;-81
2023/06/23 07:46:30;;;;;;;15.53;8.73;;;23.70;97.40;;;;;;5063482;28;20416;-78
2023/06/23 07:48:59;;;;;;;18.50;10.50;;;23.60;96.50;;;;;;5069029;28;20501;-79
2023/06/23 07:51:29;;;;;;;14.37;8.40;;;23.50;96.60;;;;;;5060160;28;20875;-77
2023/06/23 07:53:57;;;;;;;11.47;7.83;;;23.60;98.40;;;;;;5078507;28;20458;-79
2023/06/23 07:56:35;;;;;;;16.93;8.40;;;23.90;98.10;;;;;;5075479;28;20424;-77
2023/06/23 07:59:04;;;;;;;14.67;8.63;;;24.10;98.00;;;;;;5073886;28;20498;-79
2023/06/23 08:01:33;;;;;;;17.13;9.00;;;24.10;97.10;;;;;;5079760;28;20445;-79
2023/06/23 08:04:01;;;;;;;15.07;8.17;;;24.00;97.80;;;;;;5075561;28;20449;-77
2023/06/23 08:06:30;;;;;;;14.10;7.37;;;24.30;98.00;;;;;;5074119;28;20540;-79
2023/06/23 08:08:58;;;;;;;14.90;7.60;;;24.50;96.10;;;;;;5066966;28;20445;-79
2023/06/23 08:11:26;;;;;;;14.27;8.50;;;24.70;96.80;;;;;;5062583;28;20425;-78
2023/06/23 08:13:57;;;;;;;14.73;7.83;;;24.90;94.80;;;;;;5064694;28;20475;-77
2023/06/23 08:16:25;;;;;;;16.03;8.27;;;25.00;95.10;;;;;;5069607;28;20420;-77
2023/06/23 08:18:53;;;;;;;15.13;8.83;;;25.00;95.60;;;;;;5057115;28;20424;-77
2023/06/23 08:21:22;;;;;;;20.57;8.83;;;24.80;95.30;;;;;;5063154;28;20476;-77
2023/06/23 08:23:50;;;;;;;13.47;8.73;;;24.90;96.20;;;;;;5070640;28;20516;-78
2023/06/23 08:26:19;;;;;;;15.10;9.13;;;24.80;96.10;;;;;;5060487;28;20439;-77
2023/06/23 08:28:48;;;;;;;16.30;9.87;;;24.80;95.30;;;;;;5072244;28;20424;-79
2023/06/23 08:31:19;;;;;;;15.23;8.53;;;24.80;95.80;;;;;;5068608;28;20496;-78
2023/06/23 08:33:47;;;;;;;15.50;9.40;;;25.00;96.50;;;;;;5059902;28;20490;-79
2023/06/23 08:36:16;;;;;;;11.90;7.80;;;25.00;96.00;;;;;;5069369;28;20446;-78
2023/06/23 08:38:44;;;;;;;12.20;8.43;;;25.20;95.00;;;;;;5065862;28;20451;-78
2023/06/23 08:41:13;;;;;;;10.43;8.47;;;25.50;95.10;;;;;;5066826;28;20424;-78
2023/06/23 08:43:44;;;;;;;26.00;14.73;;;25.80;94.30;;;;;;5060729;28;20549;-76
2023/06/23 08:46:14;;;;;;;13.40;10.07;;;26.10;93.40;;;;;;5071038;28;20449;-78
2023/06/23 08:48:46;;;;;;;16.33;11.60;;;26.20;91.30;;;;;;5063203;28;20420;-78
2023/06/23 08:51:15;;;;;;;16.03;10.60;;;26.10;91.70;;;;;;5052708;28;20538;-78
2023/06/23 08:53:43;;;;;;;17.70;10.87;;;26.40;92.20;;;;;;5063878;28;20516;-79
2023/06/23 08:56:13;;;;;;;14.00;9.33;;;26.50;91.50;;;;;;5067715;28;20453;-78
2023/06/23 08:58:41;;;;;;;16.17;9.67;;;26.50;90.70;;;;;;5061955;28;20408;-79
2023/06/23 09:01:09;;;;;;;13.47;10.00;;;26.40;90.60;;;;;;5065320;28;20444;-80
2023/06/23 09:03:37;;;;;;;13.63;8.87;;;26.70;90.80;;;;;;5062450;28;20533;-79
2023/06/23 09:06:07;;;;;;;15.43;9.03;;;27.10;90.10;;;;;;5057705;28;20421;-78
2023/06/23 09:08:35;;;;;;;11.07;8.03;;;27.50;87.50;;;;;;5065879;28;20477;-78
2023/06/23 09:11:03;;;;;;;13.40;7.97;;;27.70;84.90;;;;;;5069629;28;20459;-78
2023/06/23 09:13:35;;;;;;;9.10;6.63;;;27.70;84.20;;;;;;5059007;28;20477;-78
2023/06/23 09:16:03;;;;;;;8.40;7.13;;;27.80;80.60;;;;;;5061096;28;20446;-78
2023/06/23 09:18:33;;;;;;;8.90;7.23;;;27.80;80.10;;;;;;5057329;28;20464;-78
2023/06/23 09:21:02;;;;;;;9.97;6.73;;;27.60;78.80;;;;;;5058972;28;20450;-77
2023/06/23 09:23:33;;;;;;;11.43;7.13;;;27.80;78.90;;;;;;5062178;28;20443;-78
2023/06/23 09:26:03;;;;;;;8.03;7.23;;;28.20;79.60;;;;;;5067473;28;20459;-79
2023/06/23 09:28:34;;;;;;;8.97;7.20;;;28.50;77.10;;;;;;5066520;28;20445;-77
2023/06/23 09:31:09;;;;;;;12.70;7.70;;;28.90;75.50;;;;;;5063142;28;20441;-77
2023/06/23 09:33:46;;;;;;;11.43;9.03;;;28.30;72.30;;;;;;5066110;28;20458;-78
2023/06/23 09:36:14;;;;;;;11.63;7.77;;;28.30;74.40;;;;;;5069298;28;20503;-77
2023/06/23 09:38:44;;;;;;;12.47;6.67;;;28.50;76.20;;;;;;5066828;28;20417;-76
2023/06/23 09:41:13;;;;;;;7.27;6.10;;;28.80;71.70;;;;;;5067854;28;20449;-78
2023/06/23 09:43:42;;;;;;;11.93;6.87;;;28.80;70.10;;;;;;5070221;28;20465;-78
2023/06/23 09:46:10;;;;;;;11.27;7.90;;;28.90;72.50;;;;;;5075696;28;20456;-78
2023/06/23 09:48:40;;;;;;;29.33;19.10;;;29.20;69.60;;;;;;5060229;28;20436;-79
2023/06/23 09:51:08;;;;;;;10.60;8.60;;;29.40;71.30;;;;;;5069641;28;20556;-78
2023/06/23 09:53:37;;;;;;;9.40;7.00;;;29.40;69.90;;;;;;5060843;28;20477;-79
2023/06/23 09:56:07;;;;;;;11.27;7.60;;;29.20;68.50;;;;;;5062256;28;20445;-78
2023/06/23 09:58:37;;;;;;;9.20;7.77;;;29.20;70.30;;;;;;5080775;28;20437;-79
2023/06/23 10:01:07;;;;;;;8.20;7.40;;;29.50;68.00;;;;;;5064250;28;20848;-78
2023/06/23 10:03:42;;;;;;;10.37;6.93;;;29.50;65.90;;;;;;5079072;28;20484;-79
2023/06/23 10:06:20;;;;;;;8.93;6.67;;;29.40;64.30;;;;;;5082912;28;20401;-80
2023/06/23 10:08:48;;;;;;;8.83;7.90;;;29.50;65.10;;;;;;5098092;28;20433;-79
2023/06/23 10:11:18;;;;;;;12.87;9.60;;;29.70;64.60;;;;;;5097218;28;20465;-79
2023/06/23 10:13:46;;;;;;;13.83;10.60;;;29.90;64.50;;;;;;5097704;28;20874;-78
2023/06/23 10:16:14;;;;;;;12.63;8.10;;;29.90;64.50;;;;;;5074027;28;20536;-79
2023/06/23 10:18:43;;;;;;;13.00;9.70;;;30.20;64.60;;;;;;5074853;28;21004;-79
2023/06/23 10:21:10;;;;;;;10.20;9.20;;;30.00;63.70;;;;;;5082217;28;20517;-79
2023/06/23 10:23:38;;;;;;;10.33;7.30;;;30.30;62.90;;;;;;5077063;28;20505;-79
2023/06/23 10:26:06;;;;;;;11.20;8.80;;;30.20;62.90;;;;;;5079223;28;20490;-80
2023/06/23 10:28:38;;;;;;;8.27;7.30;;;30.30;61.60;;;;;;5073497;28;20465;-79
2023/06/23 10:31:07;;;;;;;8.10;7.30;;;30.50;60.60;;;;;;5074719;28;20499;-79
2023/06/23 10:33:36;;;;;;;10.60;6.97;;;30.60;60.90;;;;;;5073914;28;21037;-79
2023/06/23 10:36:04;;;;;;;8.60;7.20;;;30.40;59.70;;;;;;5079128;28;20438;-80
2023/06/23 10:38:32;;;;;;;12.60;7.83;;;30.60;60.90;;;;;;5089796;28;20469;-80
2023/06/23 10:41:01;;;;;;;9.03;7.00;;;30.90;61.70;;;;;;5076761;28;20439;-80
2023/06/23 10:43:30;;;;;;;10.93;8.77;;;31.00;59.60;;;;;;5087806;28;20443;-81
2023/06/23 10:45:59;;;;;;;10.30;6.53;;;31.00;59.10;;;;;;5081967;28;20445;-80
2023/06/23 10:48:27;;;;;;;9.93;6.10;;;31.20;58.60;;;;;;5091446;28;20437;-80
2023/06/23 10:50:56;;;;;;;8.97;8.07;;;31.00;56.80;;;;;;5080724;28;20469;-80
2023/06/23 10:53:28;;;;;;;10.57;7.10;;;31.20;58.40;;;;;;5066026;28;20496;-80
2023/06/23 10:55:56;;;;;;;8.43;6.90;;;31.10;56.20;;;;;;5071309;28;20453;-80
2023/06/23 10:58:48;;;;;;;9.13;6.73;;;31.00;56.80;;;;;;5066020;28;20871;-78
2023/06/23 11:01:18;;;;;;;6.87;6.17;;;31.00;56.40;;;;;;5074964;28;20439;-79
2023/06/23 11:03:46;;;;;;;7.77;6.13;;;31.10;55.80;;;;;;5076322;28;20462;-79
2023/06/23 11:06:14;;;;;;;8.70;5.50;;;30.90;56.90;;;;;;5067167;28;20416;-79
2023/06/23 11:08:44;;;;;;;8.90;5.47;;;30.50;55.10;;;;;;5074711;28;20544;-88
2023/06/23 11:11:15;;;;;;;20.30;5.70;;;30.00;56.60;;;;;;5076248;28;20588;-85
2023/06/23 11:13:47;;;;;;;9.13;5.43;;;30.40;56.50;;;;;;5083258;28;20446;-84
2023/06/23 11:16:16;;;;;;;7.07;5.20;;;30.70;55.40;;;;;;5069282;28;20442;-85
2023/06/23 11:18:52;;;;;;;7.77;5.63;;;30.50;55.40;;;;;;5069460;28;20445;-84
2023/06/23 11:21:31;;;;;;;13.33;5.40;;;30.50;54.60;;;;;;5069948;28;20452;-84
2023/06/23 11:24:16;;;;;;;4.67;4.37;;;30.80;54.70;;;;;;5077756;28;20533;-86
2023/06/23 11:27:02;;;;;;;9.90;6.70;;;31.00;54.00;;;;;;5076710;28;20456;-86
2023/06/23 11:29:31;;;;;;;10.50;7.13;;;31.50;53.60;;;;;;5066400;28;20504;-85
2023/06/23 11:32:07;;;;;;;6.73;5.93;;;31.80;52.20;;;;;;5074532;28;20544;-85
2023/06/23 11:34:53;;;;;;;6.20;5.70;;;32.10;50.20;;;;;;5060974;28;20496;-84
2023/06/23 11:37:21;;;;;;;5.30;4.40;;;32.50;49.90;;;;;;5071681;28;20446;-83
2023/06/23 11:39:51;;;;;;;7.03;4.57;;;32.30;47.60;;;;;;5066804;28;20468;-83
2023/06/23 11:42:20;;;;;;;3.97;3.77;;;32.90;46.40;;;;;;5072718;28;20444;-82
2023/06/23 11:44:48;;;;;;;4.00;3.70;;;33.80;44.40;;;;;;5062763;28;20465;-83
2023/06/23 11:47:17;;;;;;;4.30;4.00;;;34.00;44.40;;;;;;5065205;28;20530;-83
2023/06/23 11:49:45;;;;;;;3.73;3.53;;;34.30;43.70;;;;;;5058605;28;21054;-80
2023/06/23 11:52:15;;;;;;;3.33;3.13;;;34.60;43.00;;;;;;5061133;28;20470;-82
2023/06/23 11:54:45;;;;;;;4.00;3.60;;;34.90;41.50;;;;;;5066111;28;20502;-79
2023/06/23 11:57:15;;;;;;;3.80;3.60;;;35.10;41.00;;;;;;5074429;28;20846;-81
2023/06/23 11:59:43;;;;;;;3.27;3.07;;;35.10;40.70;;;;;;5067425;28;20442;-81
2023/06/23 12:02:11;;;;;;;3.83;3.63;;;35.70;39.10;;;;;;5057115;28;20447;-80
2023/06/23 12:04:41;;;;;;;4.50;3.13;;;35.90;38.20;;;;;;5063228;28;21051;-81
2023/06/23 12:07:10;;;;;;;10.83;4.00;;;36.00;39.10;;;;;;5060319;28;20457;-82
2023/06/23 12:09:40;;;;;;;4.57;4.03;;;36.20;38.10;;;;;;5059416;28;20496;-81
2023/06/23 12:12:09;;;;;;;3.80;3.47;;;36.30;39.40;;;;;;5065205;28;20473;-81
2023/06/23 12:14:44;;;;;;;3.70;2.80;;;36.60;39.20;;;;;;5067182;28;20461;-82
2023/06/23 12:17:12;;;;;;;3.27;3.17;;;36.90;38.20;;;;;;5072501;28;20433;-82
2023/06/23 12:19:42;;;;;;;3.40;3.10;;;37.20;38.00;;;;;;5066599;28;20482;-82
2023/06/23 12:22:15;;;;;;;3.33;3.00;;;37.10;37.20;;;;;;5062833;28;20448;-81
2023/06/23 12:24:44;;;;;;;3.20;3.07;;;37.40;37.20;;;;;;5065139;28;20555;-81
2023/06/23 12:27:12;;;;;;;2.93;2.83;;;37.60;36.30;;;;;;5067646;28;20446;-80
2023/06/23 12:29:41;;;;;;;3.00;2.90;;;37.60;35.80;;;;;;5068194;28;20862;-80
2023/06/23 12:32:10;;;;;;;4.23;3.00;;;37.30;35.80;;;;;;5064375;28;20512;-81
2023/06/23 12:34:44;;;;;;;6.33;5.23;;;37.30;35.40;;;;;;5067856;28;20474;-81
2023/06/23 12:37:14;;;;;;;6.30;3.37;;;37.50;36.20;;;;;;5057337;28;20445;-81
2023/06/23 12:39:52;;;;;;;2.97;2.43;;;37.50;34.60;;;;;;5059762;28;20442;-81
2023/06/23 12:42:22;;;;;;;3.77;2.60;;;37.10;33.70;;;;;;5063595;28;20477;-81
2023/06/23 12:44:51;;;;;;;3.40;3.30;;;37.20;35.10;;;;;;5063938;28;20473;-81
2023/06/23 12:47:19;;;;;;;4.30;3.10;;;37.30;34.80;;;;;;5075160;28;21014;-81
2023/06/23 12:49:49;;;;;;;4.23;3.83;;;37.10;33.60;;;;;;5067608;28;20465;-81
2023/06/23 12:52:17;;;;;;;3.80;3.60;;;37.00;34.20;;;;;;5060295;28;20483;-81